sensor_id;sensor_type;location;lat;lon;timestamp;temperature;humidity
7366;DHT22;3723;52.220;8.792;2024-01-07T00:02:01;-0.20;22.60
7366;DHT22;3723;52.220;8.792;2024-01-07T00:04:27;-0.20;2.30
7366;DHT22;3723;52.220;8.792;2024-01-07T00:06:54;-0.20;4.30
7366;DHT22;3723;52.220;8.792;2024-01-07T00:09:21;-0.20;1.00
7366;DHT22;3723;52.220;8.792;2024-01-07T00:11:48;-0.20;1.00
7366;DHT22;3723;52.220;8.792;2024-01-07T00:14:15;-0.20;1.00
7366;DHT22;3723;52.220;8.792;2024-01-07T00:16:42;-0.20;1.00
7366;DHT22;3723;52.220;8.792;2024-01-07T00:19:10;-0.20;1.00
7366;DHT22;3723;52.220;8.792;2024-01-07T00:21:37;-0.20;1.00
7366;DHT22;3723;52.220;8.792;2024-01-07T00:24:04;-0.20;1.00
7366;DHT22;3723;52.220;8.792;2024-01-07T00:26:31;-0.20;1.00
7366;DHT22;3723;52.220;8.792;2024-01-07T00:28:58;-0.20;1.00
7366;DHT22;3723;52.220;8.792;2024-01-07T00:31:25;-0.20;1.00
7366;DHT22;3723;52.220;8.792;2024-01-07T00:33:52;-0.20;1.00
7366;DHT22;3723;52.220;8.792;2024-01-07T00:36:20;-0.20;1.00
7366;DHT22;3723;52.220;8.792;2024-01-07T00:38:47;-0.20;1.00
7366;DHT22;3723;52.220;8.792;2024-01-07T00:41:14;-0.20;1.00
7366;DHT22;3723;52.220;8.792;2024-01-07T00:43:41;-0.20;1.00
7366;DHT22;3723;52.220;8.792;2024-01-07T00:46:08;-0.20;1.00
7366;DHT22;3723;52.220;8.792;2024-01-07T00:48:35;-0.20;1.00
7366;DHT22;3723;52.220;8.792;2024-01-07T00:51:01;-0.20;1.00
7366;DHT22;3723;52.220;8.792;2024-01-07T00:53:30;-0.20;1.00
7366;DHT22;3723;52.220;8.792;2024-01-07T00:55:57;-0.20;1.00
7366;DHT22;3723;52.220;8.792;2024-01-07T00:58:24;-0.20;1.00
7366;DHT22;3723;52.220;8.792;2024-01-07T01:00:51;-0.20;1.00
7366;DHT22;3723;52.220;8.792;2024-01-07T01:03:19;-0.20;1.00
7366;DHT22;3723;52.220;8.792;2024-01-07T01:05:46;-0.20;1.00
7366;DHT22;3723;52.220;8.792;2024-01-07T01:08:13;-0.20;1.00
7366;DHT22;3723;52.220;8.792;2024-01-07T01:10:41;-0.20;1.00
7366;DHT22;3723;52.220;8.792;2024-01-07T01:13:08;-0.20;1.00
7366;DHT22;3723;52.220;8.792;2024-01-07T01:15:36;-0.20;1.00
7366;DHT22;3723;52.220;8.792;2024-01-07T01:18:03;-0.20;1.00
7366;DHT22;3723;52.220;8.792;2024-01-07T01:20:30;-0.20;1.00
7366;DHT22;3723;52.220;8.792;2024-01-07T01:22:57;-0.20;1.00
7366;DHT22;3723;52.220;8.792;2024-01-07T01:25:23;-0.20;1.00
7366;DHT22;3723;52.220;8.792;2024-01-07T01:27:53;-0.20;1.00
7366;DHT22;3723;52.220;8.792;2024-01-07T01:30:19;-0.20;1.00
7366;DHT22;3723;52.220;8.792;2024-01-07T01:32:46;-0.20;99.90
7366;DHT22;3723;52.220;8.792;2024-01-07T01:35:13;-0.20;1.00
7366;DHT22;3723;52.220;8.792;2024-01-07T01:37:40;-0.20;1.00
7366;DHT22;3723;52.220;8.792;2024-01-07T01:40:08;-0.20;1.00
7366;DHT22;3723;52.220;8.792;2024-01-07T01:42:35;-0.20;1.00
7366;DHT22;3723;52.220;8.792;2024-01-07T01:45:04;-0.30;99.90
7366;DHT22;3723;52.220;8.792;2024-01-07T01:47:31;-0.30;99.90
7366;DHT22;3723;52.220;8.792;2024-01-07T01:49:58;-0.20;1.00
7366;DHT22;3723;52.220;8.792;2024-01-07T01:52:25;-0.20;99.90
7366;DHT22;3723;52.220;8.792;2024-01-07T01:54:53;-0.30;1.00
7366;DHT22;3723;52.220;8.792;2024-01-07T01:57:21;-0.20;1.00
7366;DHT22;3723;52.220;8.792;2024-01-07T01:59:49;-0.30;99.90
7366;DHT22;3723;52.220;8.792;2024-01-07T02:02:17;-0.30;99.90
7366;DHT22;3723;52.220;8.792;2024-01-07T02:04:44;-0.30;99.90
7366;DHT22;3723;52.220;8.792;2024-01-07T02:07:11;-0.30;99.90
7366;DHT22;3723;52.220;8.792;2024-01-07T02:09:38;-0.30;99.90
7366;DHT22;3723;52.220;8.792;2024-01-07T02:12:06;-0.30;99.90
7366;DHT22;3723;52.220;8.792;2024-01-07T02:14:37;-0.40;99.90
7366;DHT22;3723;52.220;8.792;2024-01-07T02:17:04;-0.30;99.90
7366;DHT22;3723;52.220;8.792;2024-01-07T02:19:32;-0.40;99.90
7366;DHT22;3723;52.220;8.792;2024-01-07T02:21:59;-0.30;99.90
7366;DHT22;3723;52.220;8.792;2024-01-07T02:24:27;-0.40;99.90
7366;DHT22;3723;52.220;8.792;2024-01-07T02:26:54;-0.40;99.90
7366;DHT22;3723;52.220;8.792;2024-01-07T02:29:21;-0.40;99.90
7366;DHT22;3723;52.220;8.792;2024-01-07T02:31:48;-0.40;99.90
7366;DHT22;3723;52.220;8.792;2024-01-07T02:34:15;-0.30;99.90
7366;DHT22;3723;52.220;8.792;2024-01-07T02:36:42;-0.40;99.90
7366;DHT22;3723;52.220;8.792;2024-01-07T02:39:08;-0.40;99.90
7366;DHT22;3723;52.220;8.792;2024-01-07T02:41:37;-0.40;99.90
7366;DHT22;3723;52.220;8.792;2024-01-07T02:44:04;-0.40;99.90
7366;DHT22;3723;52.220;8.792;2024-01-07T02:46:31;-0.40;99.90
7366;DHT22;3723;52.220;8.792;2024-01-07T02:48:58;-0.40;99.90
7366;DHT22;3723;52.220;8.792;2024-01-07T02:51:24;-0.40;99.90
7366;DHT22;3723;52.220;8.792;2024-01-07T02:53:51;-0.50;99.90
7366;DHT22;3723;52.220;8.792;2024-01-07T02:56:18;-0.50;99.90
7366;DHT22;3723;52.220;8.792;2024-01-07T02:58:46;-0.60;99.90
7366;DHT22;3723;52.220;8.792;2024-01-07T03:01:13;-0.70;99.90
7366;DHT22;3723;52.220;8.792;2024-01-07T03:03:40;-0.70;99.90
7366;DHT22;3723;52.220;8.792;2024-01-07T03:06:06;-0.70;99.90
7366;DHT22;3723;52.220;8.792;2024-01-07T03:08:34;-0.80;1.00
7366;DHT22;3723;52.220;8.792;2024-01-07T03:11:04;-0.80;1.00
7366;DHT22;3723;52.220;8.792;2024-01-07T03:13:31;-0.90;1.00
7366;DHT22;3723;52.220;8.792;2024-01-07T03:16:00;-0.90;1.00
7366;DHT22;3723;52.220;8.792;2024-01-07T03:18:27;-0.90;1.00
7366;DHT22;3723;52.220;8.792;2024-01-07T03:20:54;-1.00;1.00
7366;DHT22;3723;52.220;8.792;2024-01-07T03:23:21;-0.90;1.00
7366;DHT22;3723;52.220;8.792;2024-01-07T03:25:48;-0.90;1.00
7366;DHT22;3723;52.220;8.792;2024-01-07T03:28:15;-0.90;1.00
7366;DHT22;3723;52.220;8.792;2024-01-07T03:30:43;-0.90;1.00
7366;DHT22;3723;52.220;8.792;2024-01-07T03:33:11;-0.90;1.00
7366;DHT22;3723;52.220;8.792;2024-01-07T03:35:38;-0.90;1.00
7366;DHT22;3723;52.220;8.792;2024-01-07T03:38:04;-0.90;1.00
7366;DHT22;3723;52.220;8.792;2024-01-07T03:40:31;-0.90;1.00
7366;DHT22;3723;52.220;8.792;2024-01-07T03:42:58;-0.90;1.00
7366;DHT22;3723;52.220;8.792;2024-01-07T03:45:25;-0.90;1.00
7366;DHT22;3723;52.220;8.792;2024-01-07T03:47:52;-0.90;1.00
7366;DHT22;3723;52.220;8.792;2024-01-07T03:50:20;-0.90;1.00
7366;DHT22;3723;52.220;8.792;2024-01-07T03:52:47;-1.00;1.00
7366;DHT22;3723;52.220;8.792;2024-01-07T03:55:14;-1.00;1.00
7366;DHT22;3723;52.220;8.792;2024-01-07T03:57:40;-1.00;1.00
7366;DHT22;3723;52.220;8.792;2024-01-07T04:00:08;-1.00;1.00
7366;DHT22;3723;52.220;8.792;2024-01-07T04:02:36;-1.10;1.00
7366;DHT22;3723;52.220;8.792;2024-01-07T04:05:04;-1.10;1.00
7366;DHT22;3723;52.220;8.792;2024-01-07T04:07:32;-1.10;1.00
7366;DHT22;3723;52.220;8.792;2024-01-07T04:09:59;-1.10;1.00
7366;DHT22;3723;52.220;8.792;2024-01-07T04:12:25;-1.10;99.90
7366;DHT22;3723;52.220;8.792;2024-01-07T04:14:52;-1.00;99.90
7366;DHT22;3723;52.220;8.792;2024-01-07T04:17:19;-1.10;99.90
7366;DHT22;3723;52.220;8.792;2024-01-07T04:19:46;-1.00;99.90
7366;DHT22;3723;52.220;8.792;2024-01-07T04:22:13;-1.10;99.90
7366;DHT22;3723;52.220;8.792;2024-01-07T04:24:42;-1.10;99.90
7366;DHT22;3723;52.220;8.792;2024-01-07T04:27:09;-1.10;99.90
7366;DHT22;3723;52.220;8.792;2024-01-07T04:29:35;-1.10;99.90
7366;DHT22;3723;52.220;8.792;2024-01-07T04:32:03;-1.10;99.90
7366;DHT22;3723;52.220;8.792;2024-01-07T04:34:30;-1.20;99.90
7366;DHT22;3723;52.220;8.792;2024-01-07T04:36:56;-1.20;82.40
7366;DHT22;3723;52.220;8.792;2024-01-07T04:39:23;-1.20;60.10
7366;DHT22;3723;52.220;8.792;2024-01-07T04:41:53;-1.10;74.00
7366;DHT22;3723;52.220;8.792;2024-01-07T04:44:20;-1.10;97.30
7366;DHT22;3723;52.220;8.792;2024-01-07T04:46:47;-1.10;95.60
7366;DHT22;3723;52.220;8.792;2024-01-07T04:49:15;-1.10;99.90
7366;DHT22;3723;52.220;8.792;2024-01-07T04:51:41;-1.10;99.90
7366;DHT22;3723;52.220;8.792;2024-01-07T04:54:08;-1.00;99.90
7366;DHT22;3723;52.220;8.792;2024-01-07T04:56:35;-1.10;99.90
7366;DHT22;3723;52.220;8.792;2024-01-07T04:59:03;-1.10;99.90
7366;DHT22;3723;52.220;8.792;2024-01-07T05:01:32;-1.10;99.90
7366;DHT22;3723;52.220;8.792;2024-01-07T05:03:59;-1.10;99.90
7366;DHT22;3723;52.220;8.792;2024-01-07T05:06:26;-1.20;99.90
7366;DHT22;3723;52.220;8.792;2024-01-07T05:08:52;-1.20;99.90
7366;DHT22;3723;52.220;8.792;2024-01-07T05:11:19;-1.20;99.90
7366;DHT22;3723;52.220;8.792;2024-01-07T05:13:46;-1.30;99.90
7366;DHT22;3723;52.220;8.792;2024-01-07T05:16:19;-1.20;99.90
7366;DHT22;3723;52.220;8.792;2024-01-07T05:18:46;-1.30;99.90
7366;DHT22;3723;52.220;8.792;2024-01-07T05:21:14;-1.30;99.90
7366;DHT22;3723;52.220;8.792;2024-01-07T05:23:41;-1.20;99.90
7366;DHT22;3723;52.220;8.792;2024-01-07T05:26:08;-1.30;99.90
7366;DHT22;3723;52.220;8.792;2024-01-07T05:28:36;-1.20;93.30
7366;DHT22;3723;52.220;8.792;2024-01-07T05:31:03;-1.30;93.40
7366;DHT22;3723;52.220;8.792;2024-01-07T05:33:31;-1.30;97.90
7366;DHT22;3723;52.220;8.792;2024-01-07T05:35:58;-1.30;88.20
7366;DHT22;3723;52.220;8.792;2024-01-07T05:38:25;-1.30;20.50
7366;DHT22;3723;52.220;8.792;2024-01-07T05:40:51;-1.30;1.00
7366;DHT22;3723;52.220;8.792;2024-01-07T05:43:18;-1.40;1.00
7366;DHT22;3723;52.220;8.792;2024-01-07T05:45:45;-1.40;1.00
7366;DHT22;3723;52.220;8.792;2024-01-07T05:48:12;-1.40;1.00
7366;DHT22;3723;52.220;8.792;2024-01-07T05:50:40;-1.40;1.00
7366;DHT22;3723;52.220;8.792;2024-01-07T05:53:07;-1.40;1.00
7366;DHT22;3723;52.220;8.792;2024-01-07T05:55:34;-1.40;1.00
7366;DHT22;3723;52.220;8.792;2024-01-07T05:58:01;-1.40;1.00
7366;DHT22;3723;52.220;8.792;2024-01-07T06:00:27;-1.50;1.00
7366;DHT22;3723;52.220;8.792;2024-01-07T06:02:54;-1.50;1.00
7366;DHT22;3723;52.220;8.792;2024-01-07T06:05:21;-1.50;1.00
7366;DHT22;3723;52.220;8.792;2024-01-07T06:07:49;-1.50;1.00
7366;DHT22;3723;52.220;8.792;2024-01-07T06:10:16;-1.50;1.00
7366;DHT22;3723;52.220;8.792;2024-01-07T06:12:43;-1.50;1.00
7366;DHT22;3723;52.220;8.792;2024-01-07T06:15:10;-1.50;1.00
7366;DHT22;3723;52.220;8.792;2024-01-07T06:17:37;-1.50;1.00
7366;DHT22;3723;52.220;8.792;2024-01-07T06:20:04;-1.50;1.00
7366;DHT22;3723;52.220;8.792;2024-01-07T06:22:31;-1.50;1.00
7366;DHT22;3723;52.220;8.792;2024-01-07T06:25:00;-1.50;1.00
7366;DHT22;3723;52.220;8.792;2024-01-07T06:27:26;-1.50;1.00
7366;DHT22;3723;52.220;8.792;2024-01-07T06:29:53;-1.50;1.00
7366;DHT22;3723;52.220;8.792;2024-01-07T06:32:20;-1.50;1.00
7366;DHT22;3723;52.220;8.792;2024-01-07T06:34:47;-1.50;1.00
7366;DHT22;3723;52.220;8.792;2024-01-07T06:37:15;-1.50;1.00
7366;DHT22;3723;52.220;8.792;2024-01-07T06:39:41;-1.50;1.00
7366;DHT22;3723;52.220;8.792;2024-01-07T06:42:10;-1.50;1.00
7366;DHT22;3723;52.220;8.792;2024-01-07T06:44:37;-1.50;1.00
7366;DHT22;3723;52.220;8.792;2024-01-07T06:47:03;-1.50;1.00
7366;DHT22;3723;52.220;8.792;2024-01-07T06:49:30;-1.50;1.00
7366;DHT22;3723;52.220;8.792;2024-01-07T06:51:57;-1.50;1.00
7366;DHT22;3723;52.220;8.792;2024-01-07T06:54:25;-1.50;1.00
7366;DHT22;3723;52.220;8.792;2024-01-07T06:56:51;-1.60;1.00
7366;DHT22;3723;52.220;8.792;2024-01-07T06:59:20;-1.50;1.00
7366;DHT22;3723;52.220;8.792;2024-01-07T07:01:46;-1.50;1.00
7366;DHT22;3723;52.220;8.792;2024-01-07T07:04:13;-1.50;1.00
7366;DHT22;3723;52.220;8.792;2024-01-07T07:06:40;-1.50;1.00
7366;DHT22;3723;52.220;8.792;2024-01-07T07:09:07;-1.50;1.00
7366;DHT22;3723;52.220;8.792;2024-01-07T07:11:34;-1.50;1.00
7366;DHT22;3723;52.220;8.792;2024-01-07T07:14:01;-1.50;1.00
7366;DHT22;3723;52.220;8.792;2024-01-07T07:16:29;-1.50;1.00
7366;DHT22;3723;52.220;8.792;2024-01-07T07:18:56;-1.50;1.00
7366;DHT22;3723;52.220;8.792;2024-01-07T07:21:23;-1.60;1.00
7366;DHT22;3723;52.220;8.792;2024-01-07T07:23:50;-1.50;1.00
7366;DHT22;3723;52.220;8.792;2024-01-07T07:26:16;-1.60;1.00
7366;DHT22;3723;52.220;8.792;2024-01-07T07:28:44;-1.60;1.00
7366;DHT22;3723;52.220;8.792;2024-01-07T07:31:11;-1.60;1.00
7366;DHT22;3723;52.220;8.792;2024-01-07T07:33:40;-1.70;1.00
7366;DHT22;3723;52.220;8.792;2024-01-07T07:36:07;-1.70;1.00
7366;DHT22;3723;52.220;8.792;2024-01-07T07:38:35;-1.70;1.00
7366;DHT22;3723;52.220;8.792;2024-01-07T07:41:02;-1.70;1.00
7366;DHT22;3723;52.220;8.792;2024-01-07T07:43:29;-1.80;1.00
7366;DHT22;3723;52.220;8.792;2024-01-07T07:45:56;-1.80;1.00
7366;DHT22;3723;52.220;8.792;2024-01-07T07:48:23;-1.90;1.00
7366;DHT22;3723;52.220;8.792;2024-01-07T07:50:53;-1.80;1.00
7366;DHT22;3723;52.220;8.792;2024-01-07T07:53:20;-1.80;1.00
7366;DHT22;3723;52.220;8.792;2024-01-07T07:55:47;-1.80;1.00
7366;DHT22;3723;52.220;8.792;2024-01-07T07:58:15;-1.90;1.00
7366;DHT22;3723;52.220;8.792;2024-01-07T08:00:42;-1.90;1.00
7366;DHT22;3723;52.220;8.792;2024-01-07T08:03:10;-1.90;1.00
7366;DHT22;3723;52.220;8.792;2024-01-07T08:05:37;-1.80;1.00
7366;DHT22;3723;52.220;8.792;2024-01-07T08:08:06;-1.80;1.00
7366;DHT22;3723;52.220;8.792;2024-01-07T08:10:33;-1.80;1.00
7366;DHT22;3723;52.220;8.792;2024-01-07T08:13:00;-1.70;1.00
7366;DHT22;3723;52.220;8.792;2024-01-07T08:15:27;-1.70;1.00
7366;DHT22;3723;52.220;8.792;2024-01-07T08:17:54;-1.70;1.00
7366;DHT22;3723;52.220;8.792;2024-01-07T08:20:22;-1.70;1.00
7366;DHT22;3723;52.220;8.792;2024-01-07T08:22:49;-1.70;1.00
7366;DHT22;3723;52.220;8.792;2024-01-07T08:25:17;-1.70;1.00
7366;DHT22;3723;52.220;8.792;2024-01-07T08:27:44;-1.70;1.00
7366;DHT22;3723;52.220;8.792;2024-01-07T08:30:11;-1.80;1.00
7366;DHT22;3723;52.220;8.792;2024-01-07T08:32:39;-1.90;1.00
7366;DHT22;3723;52.220;8.792;2024-01-07T08:35:06;-1.90;1.00
7366;DHT22;3723;52.220;8.792;2024-01-07T08:37:33;-1.80;1.00
7366;DHT22;3723;52.220;8.792;2024-01-07T08:40:00;-1.80;1.00
7366;DHT22;3723;52.220;8.792;2024-01-07T08:42:28;-1.80;1.00
7366;DHT22;3723;52.220;8.792;2024-01-07T08:44:56;-1.70;1.00
7366;DHT22;3723;52.220;8.792;2024-01-07T08:47:24;-1.80;1.00
7366;DHT22;3723;52.220;8.792;2024-01-07T08:49:51;-1.80;1.00
7366;DHT22;3723;52.220;8.792;2024-01-07T08:52:19;-1.70;1.00
7366;DHT22;3723;52.220;8.792;2024-01-07T08:54:49;-1.70;1.00
7366;DHT22;3723;52.220;8.792;2024-01-07T08:57:16;-1.80;1.00
7366;DHT22;3723;52.220;8.792;2024-01-07T08:59:44;-1.70;1.00
7366;DHT22;3723;52.220;8.792;2024-01-07T09:02:11;-1.70;1.00
7366;DHT22;3723;52.220;8.792;2024-01-07T09:04:39;-1.80;1.00
7366;DHT22;3723;52.220;8.792;2024-01-07T09:07:05;-1.70;1.00
7366;DHT22;3723;52.220;8.792;2024-01-07T09:09:32;-1.70;1.00
7366;DHT22;3723;52.220;8.792;2024-01-07T09:11:59;-1.60;1.00
7366;DHT22;3723;52.220;8.792;2024-01-07T09:14:26;-1.50;1.00
7366;DHT22;3723;52.220;8.792;2024-01-07T09:16:55;-1.50;1.00
7366;DHT22;3723;52.220;8.792;2024-01-07T09:19:27;-1.40;1.00
7366;DHT22;3723;52.220;8.792;2024-01-07T09:21:54;-1.40;1.00
7366;DHT22;3723;52.220;8.792;2024-01-07T09:24:21;-1.40;1.00
7366;DHT22;3723;52.220;8.792;2024-01-07T09:26:47;-1.40;1.00
7366;DHT22;3723;52.220;8.792;2024-01-07T09:29:14;-1.40;1.00
7366;DHT22;3723;52.220;8.792;2024-01-07T09:31:41;-1.30;1.00
7366;DHT22;3723;52.220;8.792;2024-01-07T09:34:09;-1.30;1.00
7366;DHT22;3723;52.220;8.792;2024-01-07T09:36:36;-1.20;1.00
7366;DHT22;3723;52.220;8.792;2024-01-07T09:39:03;-1.30;1.00
7366;DHT22;3723;52.220;8.792;2024-01-07T09:41:31;-1.10;1.00
7366;DHT22;3723;52.220;8.792;2024-01-07T09:43:59;-1.10;1.00
7366;DHT22;3723;52.220;8.792;2024-01-07T09:46:29;-1.00;1.00
7366;DHT22;3723;52.220;8.792;2024-01-07T09:48:56;-1.00;1.00
7366;DHT22;3723;52.220;8.792;2024-01-07T09:51:25;-0.90;1.00
7366;DHT22;3723;52.220;8.792;2024-01-07T09:53:58;-0.80;1.00
7366;DHT22;3723;52.220;8.792;2024-01-07T09:56:26;-0.90;1.00
7366;DHT22;3723;52.220;8.792;2024-01-07T09:58:55;-0.80;1.00
7366;DHT22;3723;52.220;8.792;2024-01-07T10:01:22;-0.80;1.00
7366;DHT22;3723;52.220;8.792;2024-01-07T10:03:50;-0.70;1.00
7366;DHT22;3723;52.220;8.792;2024-01-07T10:06:18;-0.70;1.00
7366;DHT22;3723;52.220;8.792;2024-01-07T10:08:46;-0.80;1.00
7366;DHT22;3723;52.220;8.792;2024-01-07T10:11:14;-0.80;1.00
7366;DHT22;3723;52.220;8.792;2024-01-07T10:13:41;-0.80;1.00
7366;DHT22;3723;52.220;8.792;2024-01-07T10:16:08;-0.70;1.00
7366;DHT22;3723;52.220;8.792;2024-01-07T10:18:34;-0.60;1.00
7366;DHT22;3723;52.220;8.792;2024-01-07T10:21:02;-0.60;1.00
7366;DHT22;3723;52.220;8.792;2024-01-07T10:23:30;-0.60;1.00
7366;DHT22;3723;52.220;8.792;2024-01-07T10:25:59;-0.80;1.00
7366;DHT22;3723;52.220;8.792;2024-01-07T10:28:27;-0.70;1.00
7366;DHT22;3723;52.220;8.792;2024-01-07T10:30:54;-0.70;1.00
7366;DHT22;3723;52.220;8.792;2024-01-07T10:33:21;-0.60;1.00
7366;DHT22;3723;52.220;8.792;2024-01-07T10:35:51;-0.60;1.00
7366;DHT22;3723;52.220;8.792;2024-01-07T10:38:19;-0.60;1.00
7366;DHT22;3723;52.220;8.792;2024-01-07T10:40:54;-0.60;1.00
7366;DHT22;3723;52.220;8.792;2024-01-07T10:43:24;-0.60;1.00
7366;DHT22;3723;52.220;8.792;2024-01-07T10:45:54;-0.60;1.00
7366;DHT22;3723;52.220;8.792;2024-01-07T10:48:23;-0.50;1.00
7366;DHT22;3723;52.220;8.792;2024-01-07T10:50:55;-0.50;1.00
7366;DHT22;3723;52.220;8.792;2024-01-07T10:53:22;-0.50;1.00
7366;DHT22;3723;52.220;8.792;2024-01-07T10:55:54;-0.50;1.00
7366;DHT22;3723;52.220;8.792;2024-01-07T10:58:24;-0.40;1.00
7366;DHT22;3723;52.220;8.792;2024-01-07T11:00:53;-0.40;1.00
7366;DHT22;3723;52.220;8.792;2024-01-07T11:03:30;-0.50;1.00
7366;DHT22;3723;52.220;8.792;2024-01-07T11:06:01;-0.40;1.00
7366;DHT22;3723;52.220;8.792;2024-01-07T11:08:34;-0.40;1.00
7366;DHT22;3723;52.220;8.792;2024-01-07T11:11:06;-0.50;1.00
7366;DHT22;3723;52.220;8.792;2024-01-07T11:13:36;-0.40;1.00
7366;DHT22;3723;52.220;8.792;2024-01-07T11:16:04;-0.40;1.00
7366;DHT22;3723;52.220;8.792;2024-01-07T11:18:38;-0.50;1.00
7366;DHT22;3723;52.220;8.792;2024-01-07T11:21:05;-0.40;1.00
7366;DHT22;3723;52.220;8.792;2024-01-07T11:23:33;-0.40;1.00
7366;DHT22;3723;52.220;8.792;2024-01-07T11:26:03;-0.30;1.00
7366;DHT22;3723;52.220;8.792;2024-01-07T11:28:50;-0.40;1.00
7366;DHT22;3723;52.220;8.792;2024-01-07T11:31:18;-0.40;1.00
7366;DHT22;3723;52.220;8.792;2024-01-07T11:33:46;-0.40;1.00
7366;DHT22;3723;52.220;8.792;2024-01-07T11:36:13;-0.30;1.00
7366;DHT22;3723;52.220;8.792;2024-01-07T11:38:42;-0.40;1.00
7366;DHT22;3723;52.220;8.792;2024-01-07T11:41:11;-0.40;1.00
7366;DHT22;3723;52.220;8.792;2024-01-07T11:43:38;-0.40;1.00
7366;DHT22;3723;52.220;8.792;2024-01-07T11:46:19;-0.30;1.00
7366;DHT22;3723;52.220;8.792;2024-01-07T11:48:46;-0.20;1.00
7366;DHT22;3723;52.220;8.792;2024-01-07T11:51:13;-0.10;1.00
7366;DHT22;3723;52.220;8.792;2024-01-07T11:53:40;0.10;1.00
7366;DHT22;3723;52.220;8.792;2024-01-07T11:56:08;0.00;1.00
7366;DHT22;3723;52.220;8.792;2024-01-07T11:58:35;0.00;1.00
7366;DHT22;3723;52.220;8.792;2024-01-07T12:01:04;-0.10;1.00
7366;DHT22;3723;52.220;8.792;2024-01-07T12:03:32;0.00;1.00
7366;DHT22;3723;52.220;8.792;2024-01-07T12:05:59;-0.10;1.00
7366;DHT22;3723;52.220;8.792;2024-01-07T12:08:26;0.00;1.00
7366;DHT22;3723;52.220;8.792;2024-01-07T12:10:53;0.00;1.00
7366;DHT22;3723;52.220;8.792;2024-01-07T12:13:21;0.10;1.00
7366;DHT22;3723;52.220;8.792;2024-01-07T12:15:48;0.10;1.00
7366;DHT22;3723;52.220;8.792;2024-01-07T12:18:15;0.00;1.00
7366;DHT22;3723;52.220;8.792;2024-01-07T12:20:54;0.00;1.00
7366;DHT22;3723;52.220;8.792;2024-01-07T12:23:21;0.10;1.00
7366;DHT22;3723;52.220;8.792;2024-01-07T12:25:48;0.00;1.00
7366;DHT22;3723;52.220;8.792;2024-01-07T12:28:17;-0.10;1.00
7366;DHT22;3723;52.220;8.792;2024-01-07T12:30:44;0.00;1.00
7366;DHT22;3723;52.220;8.792;2024-01-07T12:33:23;-0.10;1.00
7366;DHT22;3723;52.220;8.792;2024-01-07T12:35:56;-0.10;1.00
7366;DHT22;3723;52.220;8.792;2024-01-07T12:38:24;-0.10;1.00
7366;DHT22;3723;52.220;8.792;2024-01-07T12:40:51;0.00;1.00
7366;DHT22;3723;52.220;8.792;2024-01-07T12:43:18;0.00;1.00
7366;DHT22;3723;52.220;8.792;2024-01-07T12:45:45;0.10;1.00
7366;DHT22;3723;52.220;8.792;2024-01-07T12:48:13;0.10;1.00
7366;DHT22;3723;52.220;8.792;2024-01-07T12:50:39;0.00;1.00
7366;DHT22;3723;52.220;8.792;2024-01-07T12:53:08;0.00;1.00
7366;DHT22;3723;52.220;8.792;2024-01-07T12:55:35;0.10;1.00
7366;DHT22;3723;52.220;8.792;2024-01-07T12:58:02;0.10;1.00
7366;DHT22;3723;52.220;8.792;2024-01-07T13:00:28;0.10;1.00
7366;DHT22;3723;52.220;8.792;2024-01-07T13:02:55;0.00;1.00
7366;DHT22;3723;52.220;8.792;2024-01-07T13:05:23;0.00;1.00
7366;DHT22;3723;52.220;8.792;2024-01-07T13:07:50;0.10;1.00
7366;DHT22;3723;52.220;8.792;2024-01-07T13:10:19;0.10;1.00
7366;DHT22;3723;52.220;8.792;2024-01-07T13:12:46;0.00;1.00
7366;DHT22;3723;52.220;8.792;2024-01-07T13:15:13;0.00;1.00
7366;DHT22;3723;52.220;8.792;2024-01-07T13:17:39;-0.10;1.00
7366;DHT22;3723;52.220;8.792;2024-01-07T13:20:08;-0.10;1.00
7366;DHT22;3723;52.220;8.792;2024-01-07T13:22:37;-0.10;1.00
7366;DHT22;3723;52.220;8.792;2024-01-07T13:25:04;-0.10;1.00
7366;DHT22;3723;52.220;8.792;2024-01-07T13:27:33;-0.10;1.00
7366;DHT22;3723;52.220;8.792;2024-01-07T13:30:01;-0.10;1.00
7366;DHT22;3723;52.220;8.792;2024-01-07T13:32:28;-0.20;1.00
7366;DHT22;3723;52.220;8.792;2024-01-07T13:34:55;-0.20;1.00
7366;DHT22;3723;52.220;8.792;2024-01-07T13:37:22;-0.20;1.00
7366;DHT22;3723;52.220;8.792;2024-01-07T13:39:48;-0.30;1.00
7366;DHT22;3723;52.220;8.792;2024-01-07T13:42:15;-0.30;1.00
7366;DHT22;3723;52.220;8.792;2024-01-07T13:44:44;-0.20;1.00
7366;DHT22;3723;52.220;8.792;2024-01-07T13:47:12;-0.10;1.00
7366;DHT22;3723;52.220;8.792;2024-01-07T13:49:39;-0.10;1.00
7366;DHT22;3723;52.220;8.792;2024-01-07T13:52:06;0.00;1.00
7366;DHT22;3723;52.220;8.792;2024-01-07T13:54:33;0.00;1.00
7366;DHT22;3723;52.220;8.792;2024-01-07T13:57:00;0.00;1.00
7366;DHT22;3723;52.220;8.792;2024-01-07T13:59:27;0.00;1.00
7366;DHT22;3723;52.220;8.792;2024-01-07T14:01:55;0.10;1.00
7366;DHT22;3723;52.220;8.792;2024-01-07T14:04:23;0.10;1.00
7366;DHT22;3723;52.220;8.792;2024-01-07T14:06:53;0.10;1.00
7366;DHT22;3723;52.220;8.792;2024-01-07T14:09:21;0.10;1.00
7366;DHT22;3723;52.220;8.792;2024-01-07T14:11:48;0.10;1.00
7366;DHT22;3723;52.220;8.792;2024-01-07T14:14:14;0.10;1.00
7366;DHT22;3723;52.220;8.792;2024-01-07T14:16:41;0.00;1.00
7366;DHT22;3723;52.220;8.792;2024-01-07T14:19:10;0.00;1.00
7366;DHT22;3723;52.220;8.792;2024-01-07T14:21:36;-0.10;1.00
7366;DHT22;3723;52.220;8.792;2024-01-07T14:24:03;-0.10;1.00
7366;DHT22;3723;52.220;8.792;2024-01-07T14:26:30;-0.20;1.00
7366;DHT22;3723;52.220;8.792;2024-01-07T14:28:57;-0.30;1.00
7366;DHT22;3723;52.220;8.792;2024-01-07T14:31:24;-0.40;1.00
7366;DHT22;3723;52.220;8.792;2024-01-07T14:33:51;-0.50;1.00
7366;DHT22;3723;52.220;8.792;2024-01-07T14:36:19;-0.50;1.00
7366;DHT22;3723;52.220;8.792;2024-01-07T14:38:46;-0.50;1.00
7366;DHT22;3723;52.220;8.792;2024-01-07T14:41:14;-0.60;1.00
7366;DHT22;3723;52.220;8.792;2024-01-07T14:43:41;-0.60;1.00
7366;DHT22;3723;52.220;8.792;2024-01-07T14:46:08;-0.60;1.00
7366;DHT22;3723;52.220;8.792;2024-01-07T14:48:35;-0.70;1.00
7366;DHT22;3723;52.220;8.792;2024-01-07T14:51:02;-0.80;1.00
7366;DHT22;3723;52.220;8.792;2024-01-07T14:53:31;-0.80;1.00
7366;DHT22;3723;52.220;8.792;2024-01-07T14:55:58;-0.90;1.00
7366;DHT22;3723;52.220;8.792;2024-01-07T14:58:25;-0.90;1.00
7366;DHT22;3723;52.220;8.792;2024-01-07T15:00:52;-1.00;1.00
7366;DHT22;3723;52.220;8.792;2024-01-07T15:03:18;-1.00;1.00
7366;DHT22;3723;52.220;8.792;2024-01-07T15:05:46;-1.00;1.00
7366;DHT22;3723;52.220;8.792;2024-01-07T15:08:13;-1.10;1.00
7366;DHT22;3723;52.220;8.792;2024-01-07T15:10:41;-1.10;1.00
7366;DHT22;3723;52.220;8.792;2024-01-07T15:13:07;-1.10;1.00
7366;DHT22;3723;52.220;8.792;2024-01-07T15:15:34;-1.20;1.00
7366;DHT22;3723;52.220;8.792;2024-01-07T15:18:01;-1.30;1.00
7366;DHT22;3723;52.220;8.792;2024-01-07T15:20:29;-1.40;1.00
7366;DHT22;3723;52.220;8.792;2024-01-07T15:22:55;-1.40;1.00
7366;DHT22;3723;52.220;8.792;2024-01-07T15:25:22;-1.50;1.00
7366;DHT22;3723;52.220;8.792;2024-01-07T15:27:51;-1.60;1.00
7366;DHT22;3723;52.220;8.792;2024-01-07T15:30:18;-1.50;1.00
7366;DHT22;3723;52.220;8.792;2024-01-07T15:32:45;-1.60;1.00
7366;DHT22;3723;52.220;8.792;2024-01-07T15:35:12;-1.60;1.00
7366;DHT22;3723;52.220;8.792;2024-01-07T15:37:39;-1.60;1.00
7366;DHT22;3723;52.220;8.792;2024-01-07T15:40:07;-1.70;1.00
7366;DHT22;3723;52.220;8.792;2024-01-07T15:42:34;-1.80;1.00
7366;DHT22;3723;52.220;8.792;2024-01-07T15:45:03;-1.90;1.00
7366;DHT22;3723;52.220;8.792;2024-01-07T15:47:30;-2.00;1.00
7366;DHT22;3723;52.220;8.792;2024-01-07T15:50:05;-2.20;1.00
7366;DHT22;3723;52.220;8.792;2024-01-07T15:52:37;-2.30;1.00
7366;DHT22;3723;52.220;8.792;2024-01-07T15:55:11;-2.30;1.00
7366;DHT22;3723;52.220;8.792;2024-01-07T15:57:48;-2.30;1.00
7366;DHT22;3723;52.220;8.792;2024-01-07T16:00:17;-2.40;1.00
7366;DHT22;3723;52.220;8.792;2024-01-07T16:02:44;-2.50;1.00
7366;DHT22;3723;52.220;8.792;2024-01-07T16:05:12;-2.50;1.00
7366;DHT22;3723;52.220;8.792;2024-01-07T16:07:38;-2.60;1.00
7366;DHT22;3723;52.220;8.792;2024-01-07T16:10:06;-2.50;1.00
7366;DHT22;3723;52.220;8.792;2024-01-07T16:12:33;-2.60;1.00
7366;DHT22;3723;52.220;8.792;2024-01-07T16:15:00;-2.60;1.00
7366;DHT22;3723;52.220;8.792;2024-01-07T16:17:29;-2.50;1.00
7366;DHT22;3723;52.220;8.792;2024-01-07T16:19:56;-2.50;1.00